Latest Coastal Weather Observations for Noarlunga

IDS60701

Issued at 5:01 am CST Thursday 24 August 2017 (issued every 10 minutes, with the page automatically refreshed every 10 minutes)

About coastal observations | Map of coastal stations | Coastal observations for SA | Marine services | Other Formats
Station Details ID: 023885 Name: NOARLUNGA Lat: -35.16 Lon: 138.51 Height: 55.0 m
Data from the previous 72 hours. | See also: Recent months at Noarlunga
Date/Time
CST
Temp
°C
Wind Pressure Rain since
9am
mm
Weather Cloud Vis
km
Sea
Height
m
Swell
Dir  Spd
kts
Gust
kts
hPa Trend Height
m
Period
s
Dir
24/05:00am 8.7 SE 1 1 - - 7.4 - - - - - - -
24/04:30am 8.6 SE 1 1 - - 7.4 - - - - - - -
24/04:00am 8.7 CALM 0 0 - - 7.4 - - - - - - -
24/03:30am 8.7 SSE 2 3 - - 7.4 - - - - - - -
24/03:00am 8.7 SSE 1 2 - - 7.4 Rain - - - - - -
24/02:30am 8.6 S 2 3 - - 6.8 - - - - - - -
24/02:00am 8.2 NE 1 2 - - 6.0 - - - - - - -
24/01:30am 7.8 ENE 1 2 - - 5.8 - - - - - - -
24/01:00am 7.6 SSE 1 1 - - 4.6 - - - - - - -
24/12:30am 8.0 SSE 2 3 - - 4.6 - - - - - - -
24/12:00am 8.3 SSE 2 3 - - 4.6 - - - - - - -
 
Date/Time
CST
Temp
°C
Wind Pressure Rain since
9am
mm
Weather Cloud Vis
km
Sea
Height
m
Swell
Dir  Spd
kts
Gust
kts
hPa Trend Height
m
Period
s
Dir
23/11:30pm 8.5 SSE 2 3 - - 4.6 - - - - - - -
23/11:00pm 8.6 S 1 2 - - 4.6 - - - - - - -
23/10:30pm 8.8 SSE 1 2 - - 4.6 - - - - - - -
23/10:00pm 9.2 SSE 2 3 - - 4.6 - - - - - - -
23/09:30pm 9.7 S 3 4 - - 4.6 - - - - - - -
23/09:00pm 9.6 S 3 4 - - 4.6 - - - - - - -
23/08:30pm 9.6 S 2 3 - - 4.6 - - - - - - -
23/08:00pm 9.8 S 1 2 - - 4.6 - - - - - - -
23/07:30pm 10.2 S 4 6 - - 4.6 - - - - - - -
23/07:00pm 10.9 S 4 5 - - 4.6 - - - - - - -
23/06:30pm 12.0 SSW 7 12 - - 4.6 - - - - - - -
23/06:00pm 12.4 SW 4 6 - - 4.6 - - - - - - -
23/05:30pm 13.3 SW 7 12 - - 4.6 - - - - - - -
23/05:00pm 13.4 WSW 7 12 - - 4.6 - - - - - - -
23/04:30pm 14.6 SW 8 12 - - 4.6 - - - - - - -
23/04:00pm 15.1 SW 7 13 - - 4.6 - - - - - - -
23/03:30pm 14.8 SW 10 14 - - 4.6 - - - - - - -
23/03:00pm 15.5 SW 9 14 - - 4.6 - - - - - - -
23/02:30pm 14.8 SW 10 17 - - 4.6 - - - - - - -
23/02:00pm 15.4 WSW 10 16 - - 4.6 - - - - - - -
23/01:30pm 15.1 W 7 12 - - 4.6 - - - - - - -
23/01:00pm 14.5 WNW 7 10 - - 4.6 - - - - - - -
23/12:30pm 13.6 NW 7 11 - - 4.6 - - - - - - -
23/12:00pm 12.7 NW 7 9 - - 4.6 Recent precip. - - - - - -
23/11:30am 12.4 NNW 6 9 - - 4.6 - - - - - - -
23/11:00am 12.0 WNW 5 8 - - 4.2 - - - - - - -
23/10:30am 12.0 NW 5 11 - - 1.0 - - - - - - -
23/10:00am 12.2 NNW 11 16 - - 0.0 - - - - - - -
23/09:30am 12.1 N 12 17 - - 0.0 - - - - - - -
23/09:00am 11.8 N 13 18 - - 0.0 - - - - - - -
23/08:30am 12.1 N 11 15 - - 0.0 - - - - - - -
23/08:00am 12.4 NNW 9 13 - - 0.0 - - - - - - -
23/07:30am 12.6 NW 9 15 - - 0.0 - - - - - - -
23/07:00am 12.4 NW 7 13 - - 0.0 - - - - - - -
23/06:30am 12.2 NW 8 11 - - 0.0 - - - - - - -
23/06:00am 12.0 NW 6 10 - - 0.0 - - - - - - -
23/05:30am 11.9 NNW 7 11 - - 0.0 - - - - - - -
23/05:00am 12.1 NW 8 11 - - 0.0 - - - - - - -
23/04:30am 12.1 NW 8 13 - - 0.0 - - - - - - -
23/04:00am 12.2 NW 8 13 - - 0.0 - - - - - - -
23/03:30am 12.4 NW 7 10 - - 0.0 - - - - - - -
23/03:00am 12.2 NW 7 11 - - 0.0 - - - - - - -
23/02:30am 12.3 NW 8 13 - - 0.0 - - - - - - -
23/02:00am 12.3 NW 4 6 - - 0.0 - - - - - - -
23/01:30am 12.3 NW 7 9 - - 0.0 - - - - - - -
23/01:00am 12.3 NW 5 8 - - 0.0 - - - - - - -
23/12:30am 12.4 WNW 6 9 - - 0.0 - - - - - - -
23/12:00am 12.5 WNW 6 10 - - 0.0 - - - - - - -
 
Date/Time
CST
Temp
°C
Wind Pressure Rain since
9am
mm
Weather Cloud Vis
km
Sea
Height
m
Swell
Dir  Spd
kts
Gust
kts
hPa Trend Height
m
Period
s
Dir
22/11:30pm 12.6 NW 5 9 - - 0.0 - - - - - - -
22/11:00pm 12.7 NW 4 6 - - 0.0 - - - - - - -
22/10:30pm 12.5 WNW 3 5 - - 0.0 - - - - - - -
22/10:00pm 12.0 NNW 2 3 - - 0.0 - - - - - - -
22/09:30pm 11.7 NNW 3 4 - - 0.0 - - - - - - -
22/09:00pm 12.4 NW 2 5 - - 0.0 - - - - - - -
22/08:30pm 12.6 NNW 3 5 - - 0.0 - - - - - - -
22/08:00pm 12.6 NNW 4 5 - - 0.0 - - - - - - -
22/07:30pm 12.4 N 4 5 - - 0.0 - - - - - - -
22/07:00pm 12.1 NNW 4 6 - - 0.0 - - - - - - -
22/06:30pm 12.2 N 3 5 - - 0.0 - - - - - - -
22/06:00pm 13.1 NNW 4 5 - - 0.0 - - - - - - -
22/05:30pm 13.6 NNW 5 8 - - 0.0 - - - - - - -
22/05:00pm 13.6 NW 4 7 - - 0.0 - - - - - - -
22/04:30pm 13.7 NNW 8 13 - - 0.0 - - - - - - -
22/04:00pm 13.9 NNW 8 11 - - 0.0 - - - - - - -
22/03:30pm 14.0 NNW 8 11 - - 0.0 - - - - - - -
22/03:00pm 14.3 NNW 7 10 - - 0.0 - - - - - - -
22/02:30pm 15.0 NNW 8 13 - - 0.0 - - - - - - -
22/02:00pm 15.2 N 9 13 - - 0.0 - - - - - - -
22/01:30pm 15.6 NNW 7 12 - - 0.0 - - - - - - -
22/01:00pm 14.8 NNW 9 14 - - 0.0 - - - - - - -
22/12:30pm 14.7 NNW 9 12 - - 0.0 - - - - - - -
22/12:00pm 14.4 NNW 9 13 - - 0.0 - - - - - - -
22/11:30am 13.9 NNW 8 11 - - 0.0 - - - - - - -
22/11:00am 13.5 NNW 8 11 - - 0.0 - - - - - - -
22/10:30am 13.4 NNW 8 13 - - 0.0 - - - - - - -
22/10:00am 13.1 NW 7 11 - - 0.0 - - - - - - -
22/09:30am 13.0 NNW 6 8 - - 0.0 - - - - - - -
22/09:00am 12.8 NW 5 8 - - 0.4 - - - - - - -
22/08:30am 12.5 NW 4 6 - - 0.4 - - - - - - -
22/08:00am 11.4 NE 3 5 - - 0.4 - - - - - - -
22/07:30am 11.0 SW 3 4 - - 0.4 - - - - - - -
22/07:00am 10.9 SW 1 2 - - 0.4 - - - - - - -
22/06:30am 10.9 SW 2 3 - - 0.4 - - - - - - -
22/06:00am 10.9 SW 2 3 - - 0.4 - - - - - - -
22/05:30am 10.9 WSW 4 7 - - 0.4 - - - - - - -
22/05:00am 10.4 WSW 1 4 - - 0.4 - - - - - - -
22/04:30am 10.4 S 2 3 - - 0.4 - - - - - - -
22/04:00am 10.8 SSW 3 5 - - 0.4 - - - - - - -
22/03:30am 10.8 SSW 2 3 - - 0.4 - - - - - - -
22/03:00am 10.8 SSW 3 5 - - 0.4 - - - - - - -
22/02:30am 10.7 CALM 0 1 - - 0.4 - - - - - - -
22/02:00am 10.6 CALM 0 0 - - 0.4 - - - - - - -
22/01:30am 10.3 CALM 0 1 - - 0.4 - - - - - - -
22/01:00am 10.3 CALM 0 0 - - 0.4 - - - - - - -
22/12:30am 10.5 CALM 0 0 - - 0.4 - - - - - - -
22/12:00am 10.6 ENE 2 2 - - 0.4 - - - - - - -
 
Date/Time
CST
Temp
°C
Wind Pressure Rain since
9am
mm
Weather Cloud Vis
km
Sea
Height
m
Swell
Dir  Spd
kts
Gust
kts
hPa Trend Height
m
Period
s
Dir
21/11:30pm 10.3 ENE 2 3 - - 0.4 - - - - - - -
21/11:00pm 9.8 ENE 3 4 - - 0.4 - - - - - - -
21/10:30pm 10.3 ENE 2 3 - - 0.4 - - - - - - -
21/10:00pm 9.9 CALM 0 0 - - 0.4 - - - - - - -
21/09:30pm 10.1 CALM 0 0 - - 0.4 - - - - - - -
21/09:00pm 10.4 CALM 0 0 - - 0.4 - - - - - - -
21/08:30pm 10.1 CALM 0 0 - - 0.4 - - - - - - -
21/08:00pm 10.0 CALM 0 0 - - 0.4 - - - - - - -
21/07:30pm 10.2 E 3 5 - - 0.4 - - - - - - -
21/07:00pm 10.3 ESE 3 6 - - 0.4 - - - - - - -
21/06:30pm 10.9 SSE 2 3 - - 0.4 - - - - - - -
21/06:00pm 11.2 S 4 5 - - 0.4 - - - - - - -
21/05:30pm 12.0 S 6 9 - - 0.4 - - - - - - -
21/05:00pm 12.6 S 7 14 - - 0.4 - - - - - - -
21/04:30pm 12.4 SSE 7 10 - - 0.4 - - - - - - -
21/04:00pm 12.5 S 8 11 - - 0.4 - - - - - - -
21/03:30pm 12.5 SSW 8 12 - - 0.4 - - - - - - -
21/03:00pm 12.4 SW 9 13 - - 0.4 - - - - - - -
21/02:30pm 12.1 SW 7 10 - - 0.4 - - - - - - -
21/02:00pm 12.7 WSW 7 10 - - 0.4 - - - - - - -
21/01:30pm 12.2 SW 5 9 - - 0.4 - - - - - - -
21/01:00pm 11.7 NW 4 7 - - 0.2 - - - - - - -
21/12:30pm 12.0 NNW 2 4 - - 0.2 - - - - - - -
21/12:00pm 12.1 NNW 2 3 - - 0.0 - - - - - - -
21/11:30am 12.2 N 4 7 - - 0.0 - - - - - - -
21/11:00am 12.5 NNE 7 11 - - 0.0 - - - - - - -
21/10:30am 11.5 NNE 8 14 - - 0.0 - - - - - - -
21/10:00am 10.7 NNE 11 16 - - 0.0 - - - - - - -
21/09:30am 9.6 NNE 10 16 - - 0.0 - - - - - - -
21/09:00am 9.6 NNE 10 15 - - 9.0 - - - - - - -
21/08:30am 9.2 NNE 10 16 - - 9.0 - - - - - - -
21/08:00am 8.8 NNE 12 19 - - 9.0 - - - - - - -
21/07:30am 9.0 NNE 12 19 - - 9.0 - - - - - - -
21/07:00am 8.9 NNE 12 17 - - 9.0 - - - - - - -
21/06:30am 8.3 NNE 13 19 - - 9.0 - - - - - - -
21/06:00am 8.2 NNE 14 20 - - 9.0 Recent precip. - - - - - -
21/05:30am 8.3 NNE 12 18 - - 8.6 - - - - - - -

Other Formats:

Comma delimited format used in spreadsheet applications
http://www.bom.gov.au/fwo/IDS60701/IDS60701.94808.axf

JavaScript Object Notation format (JSON) in row-major order
http://www.bom.gov.au/fwo/IDS60701/IDS60701.94808.json